Terminal Aerodrome Forecast
Issued by NWS Albany, NY

Home | Current Version | Previous Version | Text Only | Print | Product List | Glossary On
Versions: 1 2 3 4 5 6 7 8 9 10 11 12 13 14 15 16 17
654
FTUS41 KALY 291120
TAFPOU
TAF
KPOU 291120Z 2912/3012 VRB03KT P6SM SCT150 BKN250
     FM291500 20008KT P6SM BKN150
     FM291800 21011G18KT P6SM SCT060 SCT250
     FM300000 19009KT P6SM BKN100
     FM300700 20004KT 5SM BR SCT050 BKN200=

USA.gov is the U.S. government's official web portal to all federal, state and local government web resources and services.